Airfield :
LOGIN :

Register | Disclaimer

   EN    FR    IT 

 










Legend :    VFR   Marginal VFR   IFR   Intensive IFR   Very Intensive IFR
Visi :
Ceiling :
>= 8 km
>= 3000ft
5 to 8 km
1000 to 3000 ft
1500m to 5 km
500 to 1000 ft
800 to 1500m
200 to 500 ft
< 800m
< 200 ft
Symbols :   Thunderstorms  Fog  Heavy snow  Heavy precipitations  Wind > 20 kt
SIGMETs :     Misc.  Thunderstorms  Icing  Turbulence  Mountain Waves  Volcanic Ashes






- Airport Elevation : 646 ft
- IATA code : VNO


EYVI - Vilnius int.

CURRENT METAR :
  • 301550Z 36014KT 7000 -SHRA BKN049CB 12/11 Q1011 NOSIG

EXPIRED METARs :
  • 301520Z 01015KT 8000 -SHRA BKN047CB 13/11 Q1011 NOSIG
  • 301450Z 02015KT 8000 -SHRA BKN040CB BKN043 13/10 Q1011 NOSIG
  • 301420Z 03015KT 9999 -SHRA BKN040CB BKN043 13/10 Q1011 NOSIG
  • 301350Z 03020KT 9999 -SHRA BKN040CB BKN044 14/10 Q1011 NOSIG
  • 301320Z 02013KT 9999 -SHRA SCT040CB OVC046 14/10 Q1011 NOSIG

TAF TAF EYVI
Valid from the 30 at 12:00 until the 31 at 12:00 UTC


301100Z 3012/3112 02020G32KT 9000 BKN030
TEMPO 3012/3021 3000 SHRA BKN005 BKN020CB
BECMG 3106/3108 04010G22KT



MET'MAP, your aeronautical weather chart ! - Copyright ORBIFLY December 2007 - Disclaimer

ORBIFLY MET'MAP TEAM :

Programming & Development : Alexandra Zaïnal
Concept & original design : Baudouin d'Aumeries
Assistance for programming : Marc-Olivier Méhu
Technical & hardware support : Manuel Goepfert

Contact : metmap@orbifly.com




SOURCES & CREDITS :

   NOAA